Station History

Weather Underground - logo

Station Historical Data
Daily Summary for October 31, 2017 Units:  English    Metric   Both
« Previous Day
Next Day »
Daily Weekly Monthly Yearly Custom
  High: Low: Average:
Temperature: 65.9 °F 46.5 °F 55.3 °F
Dew Point: 52.5 °F 44.6 °F 49.1 °F
Humidity: 94 % 58 % 81 %
Wind Speed: 4.6 mph 0.0 mph 0.5 mph
Wind Gust: 4.6 mph - -
Wind:- - WSW
Pressure: 29.96 in 29.81 in -
Precipitation: 0.00 in    
Historical Graphs
 
 
Tabular Data for October 31, 2017
Time Temperature Dew Point Pressure Wind Wind Speed Wind Gust Humidity Rainfall Rate (Hourly)
00:01 53.2 °F 49.4 °F 29.81 in Calm     87 % 0.00 in
00:06 53.0 °F 49.2 °F 29.81 in Calm     87 % 0.00 in
00:11 52.8 °F 49.0 °F 29.81 in Calm     87 % 0.00 in
00:16 52.6 °F 49.1 °F 29.81 in Calm     88 % 0.00 in
00:21 52.6 °F 49.1 °F 29.81 in Calm     88 % 0.00 in
00:26 52.5 °F 49.0 °F 29.81 in Calm     88 % 0.00 in
00:31 52.6 °F 49.1 °F 29.81 in Calm     88 % 0.00 in
00:36 52.6 °F 48.8 °F 29.81 in East 1.2 mph   87 % 0.00 in
00:41 52.4 °F 48.6 °F 29.82 in East 1.2 mph   87 % 0.00 in
00:46 52.2 °F 48.4 °F 29.81 in Calm     87 % 0.00 in
00:51 52.1 °F 48.3 °F 29.82 in Calm     87 % 0.00 in
00:56 52.1 °F 48.7 °F 29.82 in Calm     88 % 0.00 in
01:01 51.9 °F 48.5 °F 29.82 in Calm     88 % 0.00 in
01:06 51.8 °F 48.4 °F 29.82 in Calm     88 % 0.00 in
01:11 51.7 °F 48.3 °F 29.83 in Calm     88 % 0.00 in
01:16 51.6 °F 48.2 °F 29.83 in Calm     88 % 0.00 in
01:21 51.5 °F 48.4 °F 29.83 in Calm     89 % 0.00 in
01:26 51.5 °F 48.4 °F 29.83 in Calm     89 % 0.00 in
01:31 51.5 °F 48.7 °F 29.83 in Calm     90 % 0.00 in
01:36 51.4 °F 48.6 °F 29.83 in Calm     90 % 0.00 in
01:41 51.4 °F 48.3 °F 29.83 in Calm     89 % 0.00 in
01:46 51.3 °F 48.2 °F 29.83 in Calm     89 % 0.00 in
01:52 51.2 °F 48.1 °F 29.83 in Calm     89 % 0.00 in
01:57 51.1 °F 48.3 °F 29.83 in Calm     90 % 0.00 in
02:02 51.1 °F 48.3 °F 29.84 in Calm     90 % 0.00 in
02:07 51.1 °F 48.0 °F 29.84 in Calm     89 % 0.00 in
02:12 51.1 °F 48.0 °F 29.84 in Calm     89 % 0.00 in
02:17 51.0 °F 47.9 °F 29.84 in Calm     89 % 0.00 in
02:22 50.9 °F 47.8 °F 29.85 in Calm     89 % 0.00 in
02:27 50.8 °F 47.7 °F 29.85 in Calm     89 % 0.00 in
02:32 50.6 °F 47.5 °F 29.85 in Calm     89 % 0.00 in
02:37 50.5 °F 47.4 °F 29.85 in Calm     89 % 0.00 in
02:42 50.5 °F 47.7 °F 29.86 in Calm     90 % 0.00 in
02:47 50.4 °F 47.6 °F 29.86 in Calm     90 % 0.00 in
02:57 50.3 °F 47.5 °F 29.86 in Calm     90 % 0.00 in
03:02 50.1 °F 47.3 °F 29.87 in Calm     90 % 0.00 in
03:07 49.9 °F 47.1 °F 29.87 in Calm     90 % 0.00 in
03:12 49.8 °F 47.3 °F 29.87 in Calm     91 % 0.00 in
03:17 49.7 °F 47.2 °F 29.87 in Calm     91 % 0.00 in
03:22 49.8 °F 47.3 °F 29.87 in Calm     91 % 0.00 in
03:27 49.8 °F 47.3 °F 29.87 in Calm     91 % 0.00 in
03:32 49.7 °F 47.2 °F 29.88 in Calm     91 % 0.00 in
03:37 49.8 °F 47.6 °F 29.88 in Calm     92 % 0.00 in
03:42 49.9 °F 47.4 °F 29.88 in Calm     91 % 0.00 in
03:47 50.1 °F 47.9 °F 29.88 in Calm     92 % 0.00 in
03:52 50.0 °F 47.5 °F 29.88 in Calm     91 % 0.00 in
03:57 49.9 °F 47.4 °F 29.88 in Calm     91 % 0.00 in
04:02 49.7 °F 47.2 °F 29.88 in Calm     91 % 0.00 in
04:07 49.5 °F 47.0 °F 29.88 in Calm     91 % 0.00 in
04:12 49.4 °F 46.9 °F 29.88 in Calm     91 % 0.00 in
04:17 49.3 °F 46.8 °F 29.88 in Calm     91 % 0.00 in
04:22 49.2 °F 46.7 °F 29.88 in Calm     91 % 0.00 in
04:27 49.1 °F 46.6 °F 29.88 in Calm     91 % 0.00 in
04:32 49.1 °F 46.9 °F 29.89 in Calm     92 % 0.00 in
04:37 49.1 °F 46.9 °F 29.89 in Calm     92 % 0.00 in
04:42 49.1 °F 46.9 °F 29.89 in Calm     92 % 0.00 in
04:45 49.1 °F 46.9 °F 29.89 in Calm     92 % 0.00 in
04:50 49.1 °F 46.6 °F 29.89 in Calm     91 % 0.00 in
04:55 49.3 °F 47.1 °F 29.89 in Calm     92 % 0.00 in
05:00 49.5 °F 47.3 °F 29.89 in Calm     92 % 0.00 in
05:05 49.5 °F 47.0 °F 29.89 in Calm     91 % 0.00 in
05:10 49.7 °F 47.2 °F 29.89 in East 1.2 mph   91 % 0.00 in
05:15 49.8 °F 47.3 °F 29.89 in East 1.2 mph 1.2 mph 91 % 0.00 in
05:20 49.8 °F 47.3 °F 29.90 in Calm     91 % 0.00 in
05:25 49.5 °F 46.7 °F 29.90 in Calm     90 % 0.00 in
05:30 49.1 °F 46.3 °F 29.90 in Calm     90 % 0.00 in
05:35 48.8 °F 46.0 °F 29.90 in Calm     90 % 0.00 in
05:40 48.6 °F 46.1 °F 29.90 in Calm     91 % 0.00 in
05:45 48.5 °F 46.0 °F 29.90 in Calm     91 % 0.00 in
05:50 48.3 °F 46.1 °F 29.90 in East 1.2 mph   92 % 0.00 in
05:55 48.1 °F 45.9 °F 29.91 in Calm   0.1 mph 92 % 0.00 in
06:00 48.0 °F 45.8 °F 29.91 in Calm     92 % 0.00 in
06:05 47.9 °F 45.7 °F 29.91 in Calm     92 % 0.00 in
06:10 47.7 °F 45.5 °F 29.91 in Calm     92 % 0.00 in
06:15 47.5 °F 45.3 °F 29.91 in Calm     92 % 0.00 in
06:20 47.3 °F 45.1 °F 29.91 in East 1.2 mph   92 % 0.00 in
06:25 47.2 °F 45.0 °F 29.91 in Calm     92 % 0.00 in
06:30 47.1 °F 45.2 °F 29.91 in Calm     93 % 0.00 in
06:35 47.1 °F 45.2 °F 29.91 in Calm     93 % 0.00 in
06:40 46.9 °F 45.0 °F 29.91 in Calm     93 % 0.00 in
06:45 46.8 °F 44.9 °F 29.92 in Calm     93 % 0.00 in
06:50 46.7 °F 44.8 °F 29.92 in Calm     93 % 0.00 in
06:55 46.6 °F 44.7 °F 29.92 in Calm     93 % 0.00 in
07:00 46.5 °F 44.6 °F 29.92 in Calm     93 % 0.00 in
07:05 46.5 °F 44.6 °F 29.92 in Calm     93 % 0.00 in
07:10 46.5 °F 44.9 °F 29.92 in Calm     94 % 0.00 in
07:15 46.5 °F 44.9 °F 29.93 in Calm     94 % 0.00 in
07:20 46.6 °F 45.0 °F 29.93 in Calm     94 % 0.00 in
07:21 46.6 °F 45.0 °F 29.93 in Calm     94 % 0.00 in
07:26 46.7 °F 45.1 °F 29.93 in Calm     94 % 0.00 in
07:31 46.7 °F 45.1 °F 29.93 in Calm     94 % 0.00 in
07:36 46.7 °F 45.1 °F 29.93 in Calm     94 % 0.00 in
07:41 46.8 °F 45.2 °F 29.94 in East 1.2 mph   94 % 0.00 in
07:46 46.9 °F 45.3 °F 29.94 in Calm     94 % 0.00 in
07:51 47.0 °F 45.4 °F 29.94 in Calm     94 % 0.00 in
07:56 47.1 °F 45.5 °F 29.94 in Calm     94 % 0.00 in
08:01 47.2 °F 45.6 °F 29.94 in Calm     94 % 0.00 in
08:06 47.5 °F 45.9 °F 29.95 in Calm     94 % 0.00 in
08:11 47.9 °F 46.3 °F 29.95 in Calm     94 % 0.00 in
08:16 48.3 °F 46.7 °F 29.95 in Calm     94 % 0.00 in
08:21 48.9 °F 47.2 °F 29.95 in Calm     94 % 0.00 in
08:26 49.3 °F 47.4 °F 29.95 in East 1.2 mph   93 % 0.00 in
08:31 49.9 °F 48.0 °F 29.95 in Calm     93 % 0.00 in
08:36 50.7 °F 48.5 °F 29.96 in Calm     92 % 0.00 in
08:41 51.3 °F 48.8 °F 29.96 in Calm     91 % 0.00 in
08:46 51.7 °F 48.9 °F 29.96 in East 1.2 mph 1.2 mph 90 % 0.00 in
08:51 51.8 °F 48.7 °F 29.95 in East 1.2 mph 1.2 mph 89 % 0.00 in
08:56 51.8 °F 48.7 °F 29.95 in East 1.2 mph 1.2 mph 89 % 0.00 in
09:01 51.8 °F 48.7 °F 29.95 in Calm     89 % 0.00 in
09:06 51.9 °F 48.8 °F 29.95 in East 1.2 mph   89 % 0.00 in
09:11 52.0 °F 48.9 °F 29.95 in Calm     89 % 0.00 in
09:16 52.2 °F 49.1 °F 29.95 in Calm     89 % 0.00 in
09:21 52.4 °F 49.3 °F 29.95 in Calm     89 % 0.00 in
09:26 52.6 °F 49.1 °F 29.95 in East 1.2 mph 1.2 mph 88 % 0.00 in
09:31 53.0 °F 49.5 °F 29.95 in East 1.2 mph   88 % 0.00 in
09:36 53.7 °F 49.9 °F 29.95 in East 1.2 mph 1.2 mph 87 % 0.00 in
09:41 54.1 °F 50.0 °F 29.95 in East 1.0 mph   86 % 0.00 in
09:46 54.3 °F 50.2 °F 29.95 in Calm     86 % 0.00 in
09:51 54.7 °F 50.6 °F 29.95 in Calm     86 % 0.00 in
09:56 55.1 °F 51.0 °F 29.95 in Calm     86 % 0.00 in
10:01 55.3 °F 50.5 °F 29.95 in Calm     84 % 0.00 in
10:06 55.5 °F 50.7 °F 29.96 in Calm     84 % 0.00 in
10:11 55.8 °F 50.7 °F 29.96 in Calm     83 % 0.00 in
10:16 56.2 °F 51.4 °F 29.96 in Calm     84 % 0.00 in
10:21 56.5 °F 51.1 °F 29.96 in Calm     82 % 0.00 in
10:26 56.8 °F 50.7 °F 29.96 in Calm     80 % 0.00 in
10:31 57.2 °F 50.7 °F 29.96 in Calm     79 % 0.00 in
10:36 57.8 °F 51.7 °F 29.96 in Calm     80 % 0.00 in
10:41 58.0 °F 51.5 °F 29.96 in Calm     79 % 0.00 in
10:46 58.2 °F 50.7 °F 29.96 in Calm     76 % 0.00 in
10:51 58.3 °F 50.8 °F 29.96 in Calm     76 % 0.00 in
10:56 58.6 °F 50.7 °F 29.96 in Calm     75 % 0.00 in
11:01 59.0 °F 50.7 °F 29.96 in Calm     74 % 0.00 in
11:06 59.4 °F 51.1 °F 29.96 in Calm     74 % 0.00 in
11:11 59.7 °F 51.0 °F 29.96 in Calm     73 % 0.00 in
11:16 59.9 °F 51.2 °F 29.96 in Calm     73 % 0.00 in
11:21 60.0 °F 51.3 °F 29.96 in NW 2.0 mph 2.0 mph 73 % 0.00 in
11:26 60.3 °F 51.2 °F 29.96 in Calm     72 % 0.00 in
11:31 60.7 °F 51.6 °F 29.96 in Calm     72 % 0.00 in
11:36 60.9 °F 51.4 °F 29.96 in Calm     71 % 0.00 in
11:41 61.3 °F 51.4 °F 29.96 in Calm     70 % 0.00 in
11:46 61.5 °F 51.2 °F 29.96 in Calm     69 % 0.00 in
11:51 61.5 °F 51.2 °F 29.96 in Calm     69 % 0.00 in
11:56 61.9 °F 51.6 °F 29.96 in Calm     69 % 0.00 in
12:01 62.3 °F 51.2 °F 29.96 in NW 1.2 mph 1.2 mph 67 % 0.00 in
12:06 62.2 °F 50.3 °F 29.96 in NNW 2.3 mph 2.3 mph 65 % 0.00 in
12:11 62.1 °F 50.2 °F 29.95 in WNW 2.3 mph 2.3 mph 65 % 0.00 in
12:16 62.2 °F 50.3 °F 29.95 in WNW 2.3 mph 2.3 mph 65 % 0.00 in
12:21 62.4 °F 50.9 °F 29.95 in WNW 2.3 mph 2.3 mph 66 % 0.00 in
12:26 62.5 °F 50.6 °F 29.95 in Calm     65 % 0.00 in
12:31 62.5 °F 50.6 °F 29.94 in Calm     65 % 0.00 in
12:36 62.9 °F 51.4 °F 29.94 in Calm     66 % 0.00 in
12:37 62.9 °F 51.0 °F 29.94 in Calm     65 % 0.00 in
12:42 63.2 °F 51.6 °F 29.94 in NW 2.3 mph 2.3 mph 66 % 0.00 in
12:47 63.1 °F 51.6 °F 29.94 in Calm     66 % 0.00 in
12:52 63.4 °F 51.4 °F 29.93 in Calm     65 % 0.00 in
12:57 63.8 °F 52.2 °F 29.93 in Calm     66 % 0.00 in
13:02 63.8 °F 51.4 °F 29.93 in West 1.2 mph   64 % 0.00 in
13:07 63.6 °F 51.2 °F 29.93 in WNW 1.2 mph   64 % 0.00 in
13:12 63.8 °F 51.4 °F 29.93 in West 1.2 mph 1.2 mph 64 % 0.00 in
13:13 63.8 °F 51.4 °F 29.93 in West 1.2 mph   64 % 0.00 in
13:18 63.7 °F 50.9 °F 29.93 in WNW 1.2 mph   63 % 0.00 in
13:23 63.7 °F 50.9 °F 29.93 in Calm   0.4 mph 63 % 0.00 in
13:28 63.7 °F 51.3 °F 29.93 in NW 2.3 mph 2.3 mph 64 % 0.00 in
13:33 63.6 °F 51.6 °F 29.92 in Calm     65 % 0.00 in
13:38 63.8 °F 51.4 °F 29.92 in Calm     64 % 0.00 in
13:43 64.0 °F 50.7 °F 29.92 in NW 2.3 mph 2.3 mph 62 % 0.00 in
13:48 63.9 °F 51.1 °F 29.92 in NW 1.2 mph 1.2 mph 63 % 0.00 in
13:53 63.8 °F 50.5 °F 29.92 in WNW 1.2 mph   62 % 0.00 in
13:58 63.9 °F 51.1 °F 29.91 in WNW 1.2 mph 1.2 mph 63 % 0.00 in
14:03 64.1 °F 51.2 °F 29.91 in NW 2.3 mph 2.3 mph 63 % 0.00 in
14:08 64.1 °F 51.7 °F 29.91 in NW 2.0 mph 2.0 mph 64 % 0.00 in
14:13 64.1 °F 50.8 °F 29.91 in NW 1.2 mph 1.2 mph 62 % 0.00 in
14:18 64.1 °F 50.8 °F 29.91 in NW 2.3 mph 2.3 mph 62 % 0.00 in
14:23 64.2 °F 50.9 °F 29.91 in NW 2.3 mph 2.3 mph 62 % 0.00 in
14:28 64.3 °F 51.0 °F 29.91 in NW 3.5 mph 3.5 mph 62 % 0.00 in
14:33 64.4 °F 51.1 °F 29.91 in WNW 2.3 mph 2.3 mph 62 % 0.00 in
14:38 64.5 °F 50.7 °F 29.90 in NNE 3.5 mph 3.5 mph 61 % 0.00 in
14:43 64.7 °F 50.9 °F 29.90 in WSW 1.2 mph 1.2 mph 61 % 0.00 in
14:48 64.8 °F 50.6 °F 29.90 in NW 2.3 mph 2.3 mph 60 % 0.00 in
14:53 64.8 °F 51.0 °F 29.90 in NNE 2.3 mph 2.3 mph 61 % 0.00 in
14:58 64.9 °F 50.7 °F 29.90 in WNW 3.5 mph 3.5 mph 60 % 0.00 in
15:03 64.9 °F 51.1 °F 29.90 in NW 2.3 mph 2.3 mph 61 % 0.00 in
15:08 65.3 °F 51.5 °F 29.89 in WNW 4.6 mph 4.6 mph 61 % 0.00 in
15:13 65.5 °F 51.2 °F 29.89 in NW 1.2 mph 1.2 mph 60 % 0.00 in
15:19 65.8 °F 51.1 °F 29.89 in NW 2.0 mph 2.0 mph 59 % 0.00 in
15:24 65.8 °F 50.6 °F 29.89 in North 2.3 mph 2.3 mph 58 % 0.00 in
15:29 65.9 °F 52.5 °F 29.89 in NW 2.0 mph 2.0 mph 62 % 0.00 in
15:34 65.8 °F 50.6 °F 29.89 in NNW 3.5 mph 3.5 mph 58 % 0.00 in
15:39 65.5 °F 50.8 °F 29.89 in WNW 3.5 mph 3.5 mph 59 % 0.00 in
15:44 65.6 °F 51.3 °F 29.89 in WNW 2.3 mph 2.3 mph 60 % 0.00 in
15:49 65.7 °F 51.4 °F 29.89 in NW 2.3 mph 2.3 mph 60 % 0.00 in
15:54 65.5 °F 51.2 °F 29.89 in WNW 1.2 mph 1.2 mph 60 % 0.00 in
15:59 65.4 °F 50.7 °F 29.89 in NW 1.2 mph 1.2 mph 59 % 0.00 in
16:04 65.4 °F 51.1 °F 29.89 in NW 3.5 mph 3.5 mph 60 % 0.00 in
16:09 65.3 °F 50.6 °F 29.88 in WNW 2.0 mph 2.0 mph 59 % 0.00 in
16:14 65.2 °F 51.0 °F 29.88 in WNW 3.5 mph 3.5 mph 60 % 0.00 in
16:19 65.1 °F 51.3 °F 29.88 in Calm     61 % 0.00 in
16:24 65.1 °F 51.3 °F 29.88 in NW 2.3 mph 2.3 mph 61 % 0.00 in
16:29 65.0 °F 50.8 °F 29.88 in NW 2.3 mph 2.3 mph 60 % 0.00 in
16:34 64.9 °F 51.1 °F 29.88 in North 2.3 mph 2.3 mph 61 % 0.00 in
16:39 64.7 °F 50.5 °F 29.88 in NW 1.2 mph 1.2 mph 60 % 0.00 in
16:45 64.6 °F 51.3 °F 29.88 in NW 1.2 mph 1.2 mph 62 % 0.00 in
16:50 64.5 °F 50.7 °F 29.88 in WNW 1.2 mph 1.4 mph 61 % 0.00 in
16:55 64.5 °F 51.2 °F 29.88 in NW 1.2 mph 1.2 mph 62 % 0.00 in
17:00 64.4 °F 50.7 °F 29.88 in NW 2.3 mph 2.3 mph 61 % 0.00 in
17:05 64.2 °F 50.5 °F 29.88 in NW 2.3 mph 2.3 mph 61 % 0.00 in
17:10 64.1 °F 50.4 °F 29.88 in WNW 1.2 mph 1.2 mph 61 % 0.00 in
17:15 63.9 °F 51.1 °F 29.88 in WNW 1.2 mph 1.2 mph 63 % 0.00 in
17:20 63.7 °F 50.9 °F 29.88 in Calm     63 % 0.00 in
17:25 63.5 °F 50.7 °F 29.88 in Calm     63 % 0.00 in
17:30 63.2 °F 50.8 °F 29.88 in Calm     64 % 0.00 in
17:35 63.0 °F 51.0 °F 29.88 in WNW 1.2 mph   65 % 0.00 in
17:40 62.7 °F 51.2 °F 29.88 in Calm     66 % 0.00 in
17:45 62.3 °F 50.8 °F 29.88 in Calm     66 % 0.00 in
17:50 61.9 °F 50.8 °F 29.88 in Calm     67 % 0.00 in
17:55 61.6 °F 51.3 °F 29.88 in Calm     69 % 0.00 in
18:00 61.1 °F 51.6 °F 29.88 in Calm     71 % 0.00 in
18:05 60.7 °F 51.6 °F 29.88 in Calm     72 % 0.00 in
18:10 60.2 °F 51.5 °F 29.88 in Calm     73 % 0.00 in
18:15 59.7 °F 51.4 °F 29.88 in Calm     74 % 0.00 in
18:20 59.3 °F 51.4 °F 29.88 in Calm     75 % 0.00 in
18:25 58.9 °F 51.3 °F 29.88 in Calm     76 % 0.00 in
18:30 58.5 °F 51.3 °F 29.88 in Calm     77 % 0.00 in
18:35 58.1 °F 51.3 °F 29.89 in Calm     78 % 0.00 in
18:40 57.7 °F 51.6 °F 29.89 in Calm     80 % 0.00 in
18:45 57.4 °F 51.3 °F 29.89 in Calm     80 % 0.00 in
18:46 57.4 °F 51.3 °F 29.89 in Calm     80 % 0.00 in
18:51 57.1 °F 51.0 °F 29.90 in Calm     80 % 0.00 in
18:56 57.1 °F 51.0 °F 29.90 in Calm     80 % 0.00 in
19:01 57.0 °F 50.9 °F 29.90 in Calm     80 % 0.00 in
19:06 56.9 °F 51.1 °F 29.90 in Calm     81 % 0.00 in
19:11 56.7 °F 50.9 °F 29.91 in Calm     81 % 0.00 in
19:16 56.5 °F 51.1 °F 29.91 in Calm     82 % 0.00 in
19:21 56.4 °F 50.6 °F 29.91 in Calm     81 % 0.00 in
19:26 56.4 °F 51.0 °F 29.91 in Calm     82 % 0.00 in
19:31 56.4 °F 50.6 °F 29.91 in Calm     81 % 0.00 in
19:36 56.5 °F 50.7 °F 29.91 in Calm     81 % 0.00 in
19:41 56.4 °F 50.3 °F 29.91 in Calm     80 % 0.00 in
19:46 56.2 °F 50.4 °F 29.91 in Calm     81 % 0.00 in
19:51 55.9 °F 50.2 °F 29.91 in Calm     81 % 0.00 in
19:56 55.8 °F 50.4 °F 29.91 in Calm     82 % 0.00 in
20:01 55.7 °F 50.3 °F 29.91 in Calm     82 % 0.00 in
20:06 55.3 °F 49.9 °F 29.91 in Calm     82 % 0.00 in
20:11 55.1 °F 50.0 °F 29.91 in Calm     83 % 0.00 in
20:17 55.0 °F 50.3 °F 29.91 in Calm     84 % 0.00 in
20:21 54.9 °F 49.8 °F 29.91 in Calm     83 % 0.00 in
20:22 54.9 °F 49.8 °F 29.91 in Calm     83 % 0.00 in
20:23 54.9 °F 49.8 °F 29.91 in Calm     83 % 0.00 in
20:26 55.0 °F 49.9 °F 29.91 in Calm     83 % 0.00 in
20:28 55.0 °F 49.6 °F 29.91 in Calm     82 % 0.00 in
20:29 54.9 °F 49.5 °F 29.91 in Calm     82 % 0.00 in
20:33 54.8 °F 49.7 °F 29.92 in Calm     83 % 0.00 in
20:38 54.6 °F 49.9 °F 29.92 in Calm     84 % 0.00 in
20:43 54.3 °F 49.6 °F 29.92 in Calm     84 % 0.00 in
20:48 54.1 °F 49.7 °F 29.92 in Calm     85 % 0.00 in
20:53 53.9 °F 49.8 °F 29.92 in Calm     86 % 0.00 in
20:58 53.7 °F 49.6 °F 29.92 in Calm     86 % 0.00 in
21:03 53.8 °F 50.0 °F 29.92 in Calm     87 % 0.00 in
21:08 53.8 °F 50.0 °F 29.92 in Calm     87 % 0.00 in
21:13 53.7 °F 49.6 °F 29.92 in Calm     86 % 0.00 in
21:18 53.6 °F 49.8 °F 29.92 in Calm     87 % 0.00 in
21:23 53.5 °F 49.7 °F 29.93 in Calm     87 % 0.00 in
21:28 53.3 °F 49.5 °F 29.93 in Calm     87 % 0.00 in
21:33 53.0 °F 49.2 °F 29.93 in Calm     87 % 0.00 in
21:38 53.0 °F 49.5 °F 29.93 in Calm     88 % 0.00 in
21:43 53.0 °F 49.5 °F 29.93 in Calm     88 % 0.00 in
21:48 52.9 °F 49.4 °F 29.93 in Calm     88 % 0.00 in
21:53 52.9 °F 49.4 °F 29.93 in Calm     88 % 0.00 in
21:58 52.8 °F 49.3 °F 29.93 in Calm     88 % 0.00 in
22:03 52.6 °F 49.1 °F 29.93 in Calm     88 % 0.00 in
22:08 52.5 °F 49.0 °F 29.93 in Calm     88 % 0.00 in
22:13 52.4 °F 48.9 °F 29.93 in Calm     88 % 0.00 in
22:18 52.4 °F 48.9 °F 29.93 in Calm     88 % 0.00 in
22:23 52.4 °F 48.9 °F 29.93 in Calm     88 % 0.00 in
22:28 52.4 °F 48.9 °F 29.94 in Calm     88 % 0.00 in
22:33 52.1 °F 48.7 °F 29.94 in Calm     88 % 0.00 in
22:38 51.5 °F 47.8 °F 29.94 in Calm     87 % 0.00 in
22:43 50.8 °F 47.4 °F 29.94 in Calm     88 % 0.00 in
22:48 50.4 °F 47.3 °F 29.94 in Calm     89 % 0.00 in
22:53 50.3 °F 47.2 °F 29.94 in Calm     89 % 0.00 in
22:58 50.2 °F 47.4 °F 29.94 in Calm     90 % 0.00 in
23:03 50.2 °F 47.4 °F 29.94 in Calm     90 % 0.00 in
23:08 50.1 °F 47.6 °F 29.94 in Calm     91 % 0.00 in
23:14 50.0 °F 47.5 °F 29.95 in Calm     91 % 0.00 in
23:19 49.9 °F 47.4 °F 29.95 in Calm     91 % 0.00 in
23:24 49.7 °F 47.2 °F 29.94 in Calm     91 % 0.00 in
23:29 49.5 °F 46.7 °F 29.94 in Calm     90 % 0.00 in
23:34 49.3 °F 46.8 °F 29.94 in Calm     91 % 0.00 in
23:39 49.3 °F 47.1 °F 29.95 in Calm     92 % 0.00 in
23:44 49.4 °F 47.2 °F 29.95 in Calm     92 % 0.00 in
23:49 49.4 °F 47.2 °F 29.95 in Calm     92 % 0.00 in
23:54 49.3 °F 47.1 °F 29.95 in Calm     92 % 0.00 in
23:59 49.3 °F 47.1 °F 29.94 in Calm     92 % 0.00 in
Park Place, Exeter, Tulare County, California, USA
Compliments of Weather Underground - 2.75 mb